createdAt,value
2022-08-05T00:01:27.613Z,97461.88
2022-08-05T00:06:33.348Z,97462.22
2022-08-05T00:11:48.315Z,97454.81
2022-08-05T00:16:52.756Z,97453.19
2022-08-05T00:21:55.670Z,97451.84
2022-08-05T00:26:57.648Z,97447.44
2022-08-05T00:32:12.154Z,97449.56
2022-08-05T00:37:16.688Z,97443.63
2022-08-05T00:42:39.838Z,97442.50
2022-08-05T00:47:56.570Z,97430.75
2022-08-05T00:52:59.392Z,97441.44
2022-08-05T00:58:01.369Z,97431.84
2022-08-05T01:03:03.287Z,97436.66
2022-08-05T01:08:41.410Z,97424.19
2022-08-05T01:13:57.567Z,97431.31
2022-08-05T01:19:14.295Z,97433.94
2022-08-05T01:24:30.220Z,97427.31
2022-08-05T01:29:43.055Z,97423.53
2022-08-05T01:34:53.467Z,97419.31
2022-08-05T01:39:58.922Z,97417.81
2022-08-05T01:45:03.142Z,97417.50
2022-08-05T01:50:15.283Z,97411.47
2022-08-05T01:55:21.819Z,97410.00
2022-08-05T02:00:30.541Z,97403.81
2022-08-05T02:05:36.861Z,97407.25
2022-08-05T02:11:04.813Z,97401.66
2022-08-05T02:16:22.850Z,97408.41
2022-08-05T02:21:30.777Z,97412.16
2022-08-05T02:26:54.636Z,97416.75
2022-08-05T02:31:58.140Z,97422.47
2022-08-05T02:37:09.720Z,97413.31
2022-08-05T02:42:12.048Z,97414.00
2022-08-05T02:47:58.427Z,97414.47
2022-08-05T02:52:53.795Z,97423.03
2022-08-05T02:58:09.881Z,97419.81
2022-08-05T03:03:20.613Z,97421.88
2022-08-05T03:08:29.934Z,97409.66
2022-08-05T03:13:51.212Z,97415.25
2022-08-05T03:18:53.806Z,97412.94
2022-08-05T03:23:57.830Z,97416.25
2022-08-05T03:29:00.193Z,97426.97
2022-08-05T03:34:04.239Z,97431.09
2022-08-05T03:39:12.985Z,97425.28
2022-08-05T03:44:22.093Z,97417.72
2022-08-05T03:49:30.792Z,97414.28
2022-08-05T03:55:53.957Z,97403.22
2022-08-05T04:00:16.426Z,97414.19
2022-08-05T04:05:19.984Z,97416.81
2022-08-05T04:10:27.467Z,97414.09
2022-08-05T04:15:33.152Z,97411.50
2022-08-05T04:20:38.388Z,97408.75
2022-08-05T04:26:00.957Z,97421.22
2022-08-05T04:31:03.074Z,97422.69
2022-08-05T04:36:16.193Z,97427.94
2022-08-05T04:41:37.631Z,97432.50
2022-08-05T04:46:40.907Z,97439.44
2022-08-05T04:51:48.828Z,97436.63
2022-08-05T04:57:02.307Z,97434.56
2022-08-05T05:02:07.541Z,97423.25
2022-08-05T05:07:29.381Z,97427.25
2022-08-05T05:12:33.945Z,97435.31
2022-08-05T05:17:57.083Z,97495.13
2022-08-05T05:23:08.174Z,97518.53
2022-08-05T05:28:22.005Z,97526.03
2022-08-05T05:33:26.709Z,97534.72
2022-08-05T05:38:29.601Z,97535.81
2022-08-05T05:43:56.722Z,97543.66
2022-08-05T05:48:53.344Z,97535.16
2022-08-05T05:53:59.590Z,97552.84
2022-08-05T05:59:07.006Z,97582.75
2022-08-05T06:04:12.704Z,97598.06
2022-08-05T06:09:18.113Z,97603.63
2022-08-05T06:14:28.040Z,97612.31
2022-08-05T06:19:35.001Z,97612.63
2022-08-05T06:24:48.248Z,97610.66
2022-08-05T06:30:05.932Z,97623.88
2022-08-05T06:35:15.479Z,97610.19
2022-08-05T06:40:27.999Z,97607.50
2022-08-05T06:45:44.673Z,97613.81
2022-08-05T06:50:56.044Z,97617.63
2022-08-05T06:56:01.007Z,97615.44
2022-08-05T07:01:06.884Z,97633.38
2022-08-05T07:06:14.308Z,97650.50
2022-08-05T07:11:17.261Z,97671.03
2022-08-05T07:18:00.541Z,97650.28
2022-08-05T07:22:05.052Z,97679.78
2022-08-05T07:27:10.267Z,97691.44
2022-08-05T07:32:12.461Z,97684.84
2022-08-05T07:37:16.440Z,97700.28
2022-08-05T07:42:18.787Z,97668.31
2022-08-05T07:47:42.426Z,97670.19
2022-08-05T07:52:44.712Z,97688.56
2022-08-05T07:57:55.325Z,97693.09
2022-08-05T08:03:14.569Z,97707.22
2022-08-05T08:08:19.948Z,97696.03
2022-08-05T08:13:29.372Z,97695.19
2022-08-05T08:18:31.606Z,97710.63
2022-08-05T08:24:01.768Z,97713.34
2022-08-05T08:28:59.800Z,97713.34
2022-08-05T08:34:18.529Z,97715.19
2022-08-05T08:39:21.868Z,97708.53
2022-08-05T08:45:21.422Z,97726.69
2022-08-05T08:50:05.992Z,97722.13
2022-08-05T08:55:19.491Z,97725.63
2022-08-05T09:00:34.309Z,97722.22
2022-08-05T09:05:38.752Z,97721.97
2022-08-05T09:10:59.737Z,97721.88
2022-08-05T09:16:02.905Z,97704.75
2022-08-05T09:21:05.763Z,97695.72
2022-08-05T09:26:20.815Z,97697.00
2022-08-05T09:32:39.639Z,97692.91
2022-08-05T09:36:55.001Z,97701.41
2022-08-05T09:42:04.069Z,97682.91
2022-08-05T09:47:14.214Z,97693.44
2022-08-05T09:52:25.877Z,97701.78
2022-08-05T09:57:35.207Z,97682.34
2022-08-05T10:02:41.140Z,97668.91
2022-08-05T10:08:10.873Z,97671.56
2022-08-05T10:13:09.683Z,97681.75
2022-08-05T10:18:19.792Z,97685.53
2022-08-05T10:23:56.195Z,97682.16
2022-08-05T10:28:53.279Z,97666.41
2022-08-05T10:33:58.651Z,97679.66
2022-08-05T10:39:11.618Z,97679.13
2022-08-05T10:44:19.162Z,97675.59
2022-08-05T10:49:27.604Z,97664.59
2022-08-05T10:55:02.717Z,97672.50
2022-08-05T11:00:19.826Z,97663.59
2022-08-05T11:05:26.256Z,97656.91
2022-08-05T11:10:32.599Z,97656.66
2022-08-05T11:15:59.235Z,97654.63
2022-08-05T11:21:11.480Z,97660.88
2022-08-05T11:26:28.670Z,97655.81
2022-08-05T11:31:56.968Z,97661.66
2022-08-05T11:36:56.203Z,97657.72
2022-08-05T11:42:02.401Z,97657.72
2022-08-05T11:47:14.052Z,97658.31
2022-08-05T11:52:29.722Z,97665.16
2022-08-05T11:57:39.556Z,97664.41
2022-08-05T12:02:55.073Z,97653.72
2022-08-05T12:08:07.982Z,97646.81
2022-08-05T12:13:47.430Z,97641.00
2022-08-05T12:18:39.803Z,97636.59
2022-08-05T12:24:07.695Z,97622.34
2022-08-05T12:29:26.464Z,97644.34
2022-08-05T12:34:41.112Z,97642.22
2022-08-05T12:39:43.352Z,97640.06
2022-08-05T12:44:50.449Z,97634.31
2022-08-05T12:50:02.944Z,97640.44
2022-08-05T12:55:22.953Z,97657.34
2022-08-05T13:02:01.159Z,97627.97
2022-08-05T13:05:50.051Z,97619.75
2022-08-05T13:10:51.929Z,97625.78
2022-08-05T13:15:54.634Z,97622.34
2022-08-05T13:20:56.447Z,97618.72
2022-08-05T13:26:01.106Z,97626.47
2022-08-05T13:31:10.922Z,97638.31
2022-08-05T13:36:16.528Z,97628.72
2022-08-05T13:41:18.383Z,97620.66
2022-08-05T13:46:44.043Z,97618.09
2022-08-05T13:51:46.526Z,97626.44
2022-08-05T13:56:51.067Z,97630.47
2022-08-05T14:01:58.090Z,97622.00
2022-08-05T14:07:12.060Z,97596.63
2022-08-05T14:12:32.245Z,97589.53
2022-08-05T14:17:35.120Z,97584.63
2022-08-05T14:22:37.341Z,97593.38
2022-08-05T14:27:40.300Z,97589.09
2022-08-05T14:32:52.345Z,97587.50
2022-08-05T14:37:55.637Z,97578.88
2022-08-05T14:42:57.562Z,97580.06
2022-08-05T14:48:04.772Z,97581.69
2022-08-05T14:53:10.188Z,97599.38
2022-08-05T14:58:14.020Z,97603.78
2022-08-05T15:03:18.228Z,97601.56
2022-08-05T15:08:57.648Z,97592.53
2022-08-05T15:13:45.977Z,97603.84
2022-08-05T15:18:48.485Z,97626.91
2022-08-05T15:23:50.300Z,97622.47
2022-08-05T15:28:53.284Z,97615.34
2022-08-05T15:34:19.057Z,97614.34
2022-08-05T15:40:59.881Z,97606.28
2022-08-05T15:44:44.245Z,97619.44
2022-08-05T15:49:59.232Z,97618.75
2022-08-05T15:55:02.147Z,97638.44
2022-08-05T16:00:05.840Z,97657.59
2022-08-05T16:05:09.698Z,97638.50
2022-08-05T16:10:13.135Z,97647.22
2022-08-05T16:15:18.639Z,97650.53
2022-08-05T16:20:20.642Z,97653.50
2022-08-05T16:25:22.435Z,97652.84
2022-08-05T16:30:36.159Z,97666.47
2022-08-05T16:35:41.964Z,97671.69
2022-08-05T16:40:48.126Z,97684.78
2022-08-05T16:46:04.888Z,97691.06
2022-08-05T16:51:15.950Z,97692.03
2022-08-05T16:56:17.966Z,97718.34
2022-08-05T17:01:21.686Z,97735.66
2022-08-05T17:06:26.112Z,97755.81
2022-08-05T17:11:29.772Z,97786.50
2022-08-05T17:16:38.070Z,97793.81
2022-08-05T17:21:40.420Z,97812.53
2022-08-05T17:26:42.323Z,97829.81
2022-08-05T17:31:58.198Z,97832.00
2022-08-05T17:37:01.100Z,97846.88
2022-08-05T17:42:17.295Z,97867.84
2022-08-05T17:47:23.661Z,97868.69
2022-08-05T17:52:25.968Z,97892.84
2022-08-05T17:57:28.396Z,97920.03
2022-08-05T18:02:30.268Z,97940.44
2022-08-05T18:07:42.040Z,97979.09
2022-08-05T18:12:44.171Z,97981.69
2022-08-05T18:18:01.699Z,97982.16
2022-08-05T18:23:12.273Z,98001.00
2022-08-05T18:28:16.213Z,97995.13
2022-08-05T18:33:22.727Z,98011.88
2022-08-05T18:38:26.652Z,98028.53
2022-08-05T18:43:31.625Z,98044.84
2022-08-05T18:48:41.845Z,98058.53
2022-08-05T18:53:50.431Z,98068.28
2022-08-05T18:59:01.086Z,98074.69
2022-08-05T19:04:03.372Z,98071.38
2022-08-05T19:09:07.455Z,98072.63
2022-08-05T19:14:37.797Z,98076.75
2022-08-05T19:19:31.573Z,98088.56
2022-08-05T19:24:34.475Z,98091.09
2022-08-05T19:29:37.441Z,98100.84
2022-08-05T19:34:40.671Z,98111.53
2022-08-05T19:39:46.009Z,98111.06
2022-08-05T19:44:53.605Z,98123.69
2022-08-05T19:50:00.994Z,98128.97
2022-08-05T19:55:07.139Z,98125.84
2022-08-05T20:00:27.553Z,98129.09
2022-08-05T20:05:50.387Z,98122.59
2022-08-05T20:10:52.035Z,98131.56
2022-08-05T20:15:56.895Z,98152.22
2022-08-05T20:21:00.052Z,98163.00
2022-08-05T20:26:03.046Z,98161.13
2022-08-05T20:31:05.133Z,98151.25
2022-08-05T20:36:07.308Z,98163.50
2022-08-05T20:41:12.093Z,98169.25
2022-08-05T20:46:25.722Z,98210.81
2022-08-05T20:51:27.564Z,98222.31
2022-08-05T20:56:40.146Z,98232.88
2022-08-05T21:01:44.993Z,98242.09
2022-08-05T21:06:46.934Z,98240.47
2022-08-05T21:12:11.014Z,98215.06
2022-08-05T21:17:12.102Z,98227.00
2022-08-05T21:22:14.552Z,98205.06
2022-08-05T21:27:16.650Z,98194.81
2022-08-05T21:32:20.113Z,98211.88
2022-08-05T21:37:22.190Z,98243.81
2022-08-05T21:42:41.035Z,98266.28
2022-08-05T21:47:55.940Z,98295.88
2022-08-05T21:53:04.505Z,98290.31
2022-08-05T21:58:06.997Z,98277.38
2022-08-05T22:03:15.211Z,98275.66
2022-08-05T22:08:22.047Z,98278.28
2022-08-05T22:14:05.987Z,98260.09
2022-08-05T22:18:49.251Z,98308.34
2022-08-05T22:24:13.310Z,98345.69
2022-08-05T22:29:33.051Z,98367.16
2022-08-05T22:34:35.155Z,98326.03
2022-08-05T22:39:38.261Z,98340.88
2022-08-05T22:44:48.482Z,98339.84
2022-08-05T22:50:21.400Z,98346.66
2022-08-05T22:55:23.378Z,98327.75
2022-08-05T23:00:26.476Z,98303.59
2022-08-05T23:05:29.097Z,98285.81
2022-08-05T23:10:37.740Z,98297.53
2022-08-05T23:15:40.854Z,98315.25
2022-08-05T23:20:43.191Z,98331.41
2022-08-05T23:25:51.503Z,98336.50
2022-08-05T23:30:55.596Z,98344.19
2022-08-05T23:36:05.649Z,98328.13
2022-08-05T23:41:12.340Z,98329.38
2022-08-05T23:46:20.216Z,98370.38
2022-08-05T23:51:23.408Z,98352.97
2022-08-05T23:56:27.206Z,98323.06
